Time;durP1;ratioP1;P1;durP2;ratioP2;P2;SDS_P1;SDS_P2;PMS_P1;PMS_P2;Temp;Humidity;BMP_temperature;BMP_pressure;BME280_temperature;BME280_humidity;BME280_pressure;Samples;Min_cycle;Max_cycle;Signal;HPM_P1;HPM_P2
2023/03/03 00:01:31;;;;;;;41.93;22.90;;;;;;;0.82;100.00;102550.44;4992442;28;20207;-70
2023/03/03 00:03:58;;;;;;;40.77;23.13;;;;;;;0.79;100.00;102548.53;4994058;28;20314;-70
2023/03/03 00:06:24;;;;;;;35.07;21.93;;;;;;;0.82;100.00;102556.34;4990645;28;20283;-69
2023/03/03 00:08:50;;;;;;;42.57;23.73;;;;;;;0.82;100.00;102555.47;4989697;28;20265;-70
2023/03/03 00:11:15;;;;;;;41.70;22.93;;;;;;;0.84;100.00;102551.44;4989389;28;20884;-70
2023/03/03 00:13:48;;;;;;;44.57;23.87;;;;;;;0.85;100.00;102551.56;4991924;28;20309;-70
2023/03/03 00:16:36;;;;;;;51.93;27.00;;;;;;;0.94;100.00;102543.88;4987637;28;20195;-69
2023/03/03 00:19:02;;;;;;;46.53;24.77;;;;;;;0.95;100.00;102553.22;4988778;28;20203;-70
2023/03/03 00:21:30;;;;;;;51.60;27.60;;;;;;;1.01;100.00;102551.22;4993124;28;20204;-70
2023/03/03 00:24:34;;;;;;;68.47;31.37;;;;;;;1.11;100.00;102553.75;4989889;28;20204;-70
2023/03/03 00:27:08;;;;;;;64.97;30.43;;;;;;;1.19;100.00;102550.25;4980412;28;20257;-70
2023/03/03 00:29:40;;;;;;;68.27;33.70;;;;;;;1.22;100.00;102542.91;4990233;28;20200;-69
2023/03/03 00:32:14;;;;;;;63.73;31.67;;;;;;;1.27;100.00;102541.66;4989427;28;20250;-70
2023/03/03 00:34:42;;;;;;;64.37;31.83;;;;;;;1.30;100.00;102544.44;5007971;28;20198;-69
2023/03/03 00:37:30;;;;;;;64.73;31.97;;;;;;;1.32;100.00;102550.53;4968991;28;20219;-68
2023/03/03 00:40:08;;;;;;;66.30;30.80;;;;;;;1.37;100.00;102555.19;4987105;28;20207;-68
2023/03/03 00:42:35;;;;;;;61.03;31.17;;;;;;;1.40;100.00;102544.44;4989505;28;20583;-68
2023/03/03 00:45:00;;;;;;;57.63;29.87;;;;;;;1.41;100.00;102541.16;4978249;28;20200;-69
2023/03/03 00:47:30;;;;;;;62.67;31.00;;;;;;;1.47;100.00;102539.16;4989129;28;20262;-69
2023/03/03 00:50:05;;;;;;;63.83;30.37;;;;;;;1.54;100.00;102537.28;4976526;28;20265;-69
2023/03/03 00:52:35;;;;;;;67.07;31.17;;;;;;;1.59;100.00;102542.69;4996922;28;20216;-69
2023/03/03 00:55:01;;;;;;;66.27;30.80;;;;;;;1.62;100.00;102533.75;4993752;28;20567;-69
2023/03/03 00:57:26;;;;;;;63.73;30.40;;;;;;;1.66;100.00;102540.78;4989754;28;20206;-69
2023/03/03 00:59:52;;;;;;;68.20;32.10;;;;;;;1.69;100.00;102542.69;4992713;28;20203;-69
2023/03/03 01:02:17;;;;;;;64.73;30.37;;;;;;;1.72;100.00;102536.25;4984046;28;20247;-68
2023/03/03 01:04:49;;;;;;;72.47;32.30;;;;;;;1.74;100.00;102534.72;4986003;28;20615;-69
2023/03/03 01:07:14;;;;;;;66.47;30.43;;;;;;;1.76;100.00;102530.69;4985754;28;20265;-67
2023/03/03 01:09:39;;;;;;;67.30;31.83;;;;;;;1.80;100.00;102530.19;4994144;28;20202;-69
2023/03/03 01:12:05;;;;;;;67.37;31.43;;;;;;;1.85;100.00;102533.97;4989182;28;20210;-69
2023/03/03 01:14:31;;;;;;;65.33;31.33;;;;;;;1.86;100.00;102529.78;4993411;28;20321;-69
2023/03/03 01:16:57;;;;;;;68.37;32.20;;;;;;;1.88;100.00;102530.81;4985487;28;20282;-69
2023/03/03 01:19:23;;;;;;;69.37;31.97;;;;;;;1.91;100.00;102528.50;4983705;28;20267;-69
2023/03/03 01:21:49;;;;;;;73.43;31.63;;;;;;;1.91;100.00;102525.97;4993188;28;20191;-70
2023/03/03 01:24:15;;;;;;;84.43;34.40;;;;;;;1.93;100.00;102527.88;4984520;28;20215;-67
2023/03/03 01:26:42;;;;;;;89.77;34.83;;;;;;;1.95;100.00;102516.25;4986783;28;20754;-69
2023/03/03 01:29:08;;;;;;;90.63;35.73;;;;;;;1.96;100.00;102509.56;4965716;28;20204;-70
2023/03/03 01:31:33;;;;;;;94.60;36.60;;;;;;;1.99;100.00;102510.69;4982157;28;20196;-70
2023/03/03 01:33:59;;;;;;;92.60;37.87;;;;;;;2.02;100.00;102512.59;4988792;28;20560;-69
2023/03/03 01:36:26;;;;;;;109.13;39.63;;;;;;;2.04;100.00;102511.94;4992308;28;20251;-69
2023/03/03 01:38:53;;;;;;;106.90;38.03;;;;;;;2.07;100.00;102504.59;4989043;28;20198;-69
2023/03/03 01:41:19;;;;;;;105.47;40.13;;;;;;;2.09;100.00;102500.56;4991135;28;20195;-70
2023/03/03 01:43:47;;;;;;;118.10;41.53;;;;;;;2.09;100.00;102498.03;4983718;28;20207;-70
2023/03/03 01:46:35;;;;;;;117.27;41.03;;;;;;;2.12;100.00;102499.94;4982925;28;20657;-69
2023/03/03 01:49:04;;;;;;;118.10;40.30;;;;;;;2.14;100.00;102501.81;4988952;28;20221;-70
2023/03/03 01:51:34;;;;;;;131.47;43.10;;;;;;;2.17;100.00;102503.69;4992578;28;20200;-69
2023/03/03 01:54:02;;;;;;;133.57;41.53;;;;;;;2.17;100.00;102507.13;4983696;28;20219;-69
2023/03/03 01:56:28;;;;;;;121.10;42.30;;;;;;;2.18;100.00;102503.81;4984553;28;20211;-69
2023/03/03 01:59:13;;;;;;;130.50;44.27;;;;;;;2.19;100.00;102499.63;4984952;28;20210;-69
2023/03/03 02:01:40;;;;;;;131.73;44.90;;;;;;;2.19;100.00;102498.00;5006538;28;20203;-69
2023/03/03 02:04:05;;;;;;;139.17;43.90;;;;;;;2.21;100.00;102499.00;4985351;28;20632;-68
2023/03/03 02:06:38;;;;;;;140.20;46.67;;;;;;;2.20;100.00;102494.69;4987293;28;20219;-70
2023/03/03 02:09:16;;;;;;;143.47;45.33;;;;;;;2.21;100.00;102493.06;4992051;28;20209;-68
2023/03/03 02:11:44;;;;;;;134.37;46.23;;;;;;;2.23;100.00;102489.00;4987160;28;20695;-69
2023/03/03 02:14:11;;;;;;;141.43;45.97;;;;;;;2.23;100.00;102489.00;4983599;28;20239;-69
2023/03/03 02:16:42;;;;;;;145.83;46.67;;;;;;;2.23;100.00;102489.91;4983718;28;20854;-69
2023/03/03 02:19:16;;;;;;;160.00;45.20;;;;;;;2.23;100.00;102500.00;4982349;28;20192;-70
2023/03/03 02:21:42;;;;;;;140.67;44.47;;;;;;;2.23;100.00;102494.06;4982454;28;20652;-69
2023/03/03 02:24:24;;;;;;;138.00;43.03;;;;;;;2.21;100.00;102493.06;4982337;28;20207;-69
2023/03/03 02:26:50;;;;;;;129.30;43.00;;;;;;;2.21;100.00;102493.06;4985226;28;20187;-69
2023/03/03 02:29:15;;;;;;;154.30;43.60;;;;;;;2.19;100.00;102497.09;4981647;28;20200;-69
2023/03/03 02:31:41;;;;;;;134.63;43.73;;;;;;;2.16;100.00;102491.84;4983242;28;20191;-68
2023/03/03 02:34:07;;;;;;;131.17;44.03;;;;;;;2.16;100.00;102486.78;4963883;28;20216;-69
2023/03/03 02:36:37;;;;;;;152.63;45.67;;;;;;;2.13;100.00;102489.94;4999225;28;20200;-68
2023/03/03 02:39:25;;;;;;;155.17;44.33;;;;;;;2.10;100.00;102501.44;4982677;28;20279;-69
2023/03/03 02:41:57;;;;;;;140.73;42.30;;;;;;;2.13;100.00;102500.06;4982786;28;20188;-69
2023/03/03 02:44:30;;;;;;;131.73;40.80;;;;;;;2.07;100.00;102496.16;4995643;28;20193;-69
2023/03/03 02:46:57;;;;;;;147.10;40.90;;;;;;;2.03;100.00;102499.19;4986562;28;20655;-69
2023/03/03 02:49:26;;;;;;;115.57;39.47;;;;;;;2.00;100.00;102502.34;4981891;28;20196;-68
2023/03/03 02:51:52;;;;;;;134.93;40.43;;;;;;;1.96;100.00;102500.34;4979151;28;20195;-68
2023/03/03 02:54:20;;;;;;;120.23;40.57;;;;;;;1.97;100.00;102493.66;4981281;28;20270;-69
2023/03/03 02:56:45;;;;;;;117.07;39.47;;;;;;;1.92;100.00;102490.75;4985032;28;20192;-69
2023/03/03 02:59:12;;;;;;;117.13;39.00;;;;;;;1.92;100.00;102494.94;4984610;28;20765;-69
2023/03/03 03:01:43;;;;;;;142.87;41.27;;;;;;;1.90;100.00;102499.88;4989586;28;21185;-69
2023/03/03 03:04:15;;;;;;;129.00;40.67;;;;;;;1.89;100.00;102498.06;4982144;28;20742;-69
2023/03/03 03:06:44;;;;;;;134.47;39.93;;;;;;;1.88;100.00;102503.03;4990437;28;20187;-68
2023/03/03 03:09:13;;;;;;;125.97;41.97;;;;;;;1.88;100.00;102505.56;4988879;28;20207;-68
2023/03/03 03:11:38;;;;;;;127.03;42.23;;;;;;;1.89;100.00;102509.84;4981701;28;20274;-69
2023/03/03 03:14:06;;;;;;;126.07;40.93;;;;;;;1.86;100.00;102512.09;4971596;28;20219;-69
2023/03/03 03:16:33;;;;;;;129.17;41.93;;;;;;;1.83;100.00;102505.16;4983204;28;20243;-68
2023/03/03 03:19:01;;;;;;;134.37;38.83;;;;;;;1.75;100.00;102506.19;4989259;28;20203;-69
2023/03/03 03:21:27;;;;;;;133.57;39.63;;;;;;;1.70;100.00;102511.66;4967765;28;20592;-68
2023/03/03 03:23:53;;;;;;;127.40;40.83;;;;;;;1.68;100.00;102508.09;4989786;28;20204;-69
2023/03/03 03:26:19;;;;;;;153.43;39.37;;;;;;;1.64;100.00;102501.03;4975311;28;20722;-69
2023/03/03 03:28:48;;;;;;;137.50;41.10;;;;;;;1.66;100.00;102507.97;4984204;28;20219;-69
2023/03/03 03:31:14;;;;;;;132.10;40.03;;;;;;;1.65;100.00;102511.25;4986778;28;20188;-69
2023/03/03 03:33:39;;;;;;;124.53;39.40;;;;;;;1.62;100.00;102511.03;4991076;28;20211;-68
2023/03/03 03:36:06;;;;;;;128.27;39.63;;;;;;;1.60;100.00;102515.06;4988768;28;20191;-69
2023/03/03 03:38:33;;;;;;;132.07;40.47;;;;;;;1.58;100.00;102526.69;4987969;28;20188;-69
2023/03/03 03:40:59;;;;;;;142.07;39.93;;;;;;;1.54;100.00;102522.13;4983993;28;20323;-69
2023/03/03 03:43:25;;;;;;;115.90;41.23;;;;;;;1.57;100.00;102524.91;4986043;28;20295;-68
2023/03/03 03:45:51;;;;;;;148.67;41.73;;;;;;;1.55;100.00;102523.88;4990357;28;20623;-70
2023/03/03 03:48:18;;;;;;;135.83;41.03;;;;;;;1.55;100.00;102507.84;4987351;28;20211;-69
2023/03/03 03:50:49;;;;;;;127.90;41.97;;;;;;;1.52;100.00;102510.16;4987303;28;20188;-69
2023/03/03 03:53:16;;;;;;;133.17;41.87;;;;;;;1.51;100.00;102514.28;4984194;28;20246;-68
2023/03/03 03:55:42;;;;;;;161.17;41.73;;;;;;;1.50;100.00;102517.59;4987661;28;20699;-68
2023/03/03 03:58:11;;;;;;;118.53;40.87;;;;;;;1.51;100.00;102508.38;4973515;28;20187;-69
2023/03/03 04:00:39;;;;;;;127.27;42.60;;;;;;;1.51;100.00;102510.91;4988197;28;20291;-69
2023/03/03 04:03:05;;;;;;;127.77;42.47;;;;;;;1.52;100.00;102507.63;4987427;28;20216;-68
2023/03/03 04:05:30;;;;;;;139.37;41.97;;;;;;;1.52;100.00;102503.44;4991554;28;20824;-69
2023/03/03 04:07:56;;;;;;;128.37;39.13;;;;;;;1.52;100.00;102507.63;4986459;28;20239;-70
2023/03/03 04:10:21;;;;;;;150.30;43.20;;;;;;;1.50;100.00;102493.97;4988590;28;20258;-69
2023/03/03 04:12:47;;;;;;;140.77;42.60;;;;;;;1.48;100.00;102483.78;4984126;28;20251;-70
2023/03/03 04:15:14;;;;;;;125.40;41.57;;;;;;;1.48;100.00;102487.94;4972588;28;20195;-70
2023/03/03 04:17:40;;;;;;;166.27;42.73;;;;;;;1.43;100.00;102487.59;4989567;28;20192;-69
2023/03/03 04:20:09;;;;;;;152.17;43.03;;;;;;;1.38;100.00;102485.44;4974012;28;20219;-69
2023/03/03 04:22:35;;;;;;;136.40;41.50;;;;;;;1.35;100.00;102491.09;4968846;28;20301;-70
2023/03/03 04:25:05;;;;;;;154.90;41.43;;;;;;;1.35;100.00;102490.22;4990545;28;20265;-69
2023/03/03 04:27:36;;;;;;;148.10;42.93;;;;;;;1.35;100.00;102490.22;4983065;28;20216;-69
2023/03/03 04:30:05;;;;;;;128.53;40.90;;;;;;;1.35;100.00;102493.63;4975312;28;20187;-68
2023/03/03 04:32:32;;;;;;;131.40;39.83;;;;;;;1.32;100.00;102492.50;4974372;28;20313;-69
2023/03/03 04:35:00;;;;;;;127.20;39.40;;;;;;;1.30;100.00;102499.03;4974927;28;20211;-68
2023/03/03 04:37:25;;;;;;;121.23;40.23;;;;;;;1.32;100.00;102495.91;4985863;28;20188;-69
2023/03/03 04:39:51;;;;;;;121.40;40.03;;;;;;;1.28;100.00;102498.06;4991027;28;20195;-68
2023/03/03 04:42:16;;;;;;;131.20;41.50;;;;;;;1.28;100.00;102482.91;4989437;28;20226;-69
2023/03/03 04:44:42;;;;;;;131.73;41.83;;;;;;;1.24;100.00;102494.38;5003178;28;20234;-70
2023/03/03 04:47:08;;;;;;;129.40;42.37;;;;;;;1.26;100.00;102486.94;4995220;28;20627;-69
2023/03/03 04:49:34;;;;;;;119.57;38.10;;;;;;;1.29;100.00;102487.19;4975206;28;20188;-70
2023/03/03 04:52:00;;;;;;;121.70;40.40;;;;;;;1.28;100.00;102488.81;4988376;28;20241;-70
2023/03/03 04:54:26;;;;;;;123.27;41.47;;;;;;;1.25;100.00;102483.56;4971846;28;20282;-68
2023/03/03 04:56:51;;;;;;;117.00;40.97;;;;;;;1.24;100.00;102488.47;4986011;28;20203;-69
2023/03/03 04:59:17;;;;;;;115.23;41.13;;;;;;;1.29;100.00;102494.75;4986698;28;20193;-69
2023/03/03 05:01:42;;;;;;;113.47;40.10;;;;;;;1.27;100.00;102502.19;4988758;28;20202;-69
2023/03/03 05:04:08;;;;;;;124.27;41.10;;;;;;;1.28;100.00;102503.97;4989236;28;20306;-68
2023/03/03 05:06:34;;;;;;;121.67;41.90;;;;;;;1.30;100.00;102501.56;4990729;28;20548;-70
2023/03/03 05:08:59;;;;;;;109.63;39.50;;;;;;;1.29;100.00;102507.38;4989160;28;20212;-70
2023/03/03 05:11:25;;;;;;;101.57;37.87;;;;;;;1.28;100.00;102503.97;4985174;28;20187;-69
2023/03/03 05:13:51;;;;;;;98.17;37.93;;;;;;;1.26;100.00;102505.50;4986922;28;20226;-69
2023/03/03 05:16:16;;;;;;;110.33;38.50;;;;;;;1.23;100.00;102506.88;4986485;28;20211;-70
2023/03/03 05:18:41;;;;;;;110.97;39.17;;;;;;;1.22;100.00;102507.63;4990182;28;20199;-70
2023/03/03 05:21:07;;;;;;;106.03;38.50;;;;;;;1.17;100.00;102502.19;4987516;28;20195;-68
2023/03/03 05:23:32;;;;;;;118.40;39.27;;;;;;;1.18;100.00;102505.59;4982770;28;20244;-69
2023/03/03 05:25:58;;;;;;;109.50;38.93;;;;;;;1.16;100.00;102497.03;4990698;28;20275;-70
2023/03/03 05:28:23;;;;;;;102.03;38.10;;;;;;;1.18;100.00;102505.59;4990001;28;20228;-68
2023/03/03 05:30:49;;;;;;;107.30;38.37;;;;;;;1.18;100.00;102501.44;4971943;28;20200;-69
2023/03/03 05:33:16;;;;;;;115.13;37.03;;;;;;;1.13;100.00;102512.78;4985813;28;20231;-69
2023/03/03 05:35:41;;;;;;;101.43;37.93;;;;;;;1.13;100.00;102516.94;4991322;28;20618;-69
2023/03/03 05:38:07;;;;;;;103.40;37.20;;;;;;;1.11;100.00;102510.91;4986877;28;20282;-68
2023/03/03 05:40:32;;;;;;;98.97;36.47;;;;;;;1.08;100.00;102509.00;4992996;28;20712;-68
2023/03/03 05:42:58;;;;;;;100.20;35.97;;;;;;;1.09;100.00;102505.72;4983516;28;20219;-68
2023/03/03 05:45:23;;;;;;;99.80;37.73;;;;;;;1.10;100.00;102516.69;4986391;28;20195;-68
2023/03/03 05:47:50;;;;;;;99.83;36.63;;;;;;;1.11;100.00;102515.94;4989351;28;20277;-70
2023/03/03 05:50:17;;;;;;;100.37;35.43;;;;;;;1.11;100.00;102516.84;4982982;28;20205;-68
2023/03/03 05:52:43;;;;;;;105.07;38.13;;;;;;;1.09;100.00;102523.38;4986979;28;20212;-69
2023/03/03 05:55:09;;;;;;;97.97;38.50;;;;;;;1.07;100.00;102516.44;4988172;28;20543;-69
2023/03/03 05:57:35;;;;;;;100.93;39.37;;;;;;;1.06;100.00;102512.16;4988258;28;20593;-69
2023/03/03 06:00:02;;;;;;;104.83;37.53;;;;;;;1.04;100.00;102511.13;4982416;28;20192;-69
2023/03/03 06:02:38;;;;;;;101.20;37.57;;;;;;;1.06;100.00;102510.50;4990003;28;20222;-69
2023/03/03 06:05:03;;;;;;;104.63;38.53;;;;;;;1.02;100.00;102512.66;4988583;28;20195;-68
2023/03/03 06:07:29;;;;;;;103.50;38.27;;;;;;;0.99;100.00;102514.91;4986648;28;20219;-69
2023/03/03 06:09:54;;;;;;;92.67;36.77;;;;;;;1.00;100.00;102514.16;4987797;28;20660;-69
2023/03/03 06:12:21;;;;;;;95.47;37.40;;;;;;;0.97;100.00;102524.88;4972543;28;20666;-69
2023/03/03 06:14:46;;;;;;;97.83;37.47;;;;;;;0.93;100.00;102522.84;4989878;28;20199;-70
2023/03/03 06:17:12;;;;;;;95.77;37.10;;;;;;;0.98;100.00;102520.72;4983628;28;21751;-68
2023/03/03 06:19:37;;;;;;;104.67;38.10;;;;;;;0.98;100.00;102536.72;4987852;28;20837;-69
2023/03/03 06:22:03;;;;;;;93.10;34.90;;;;;;;0.94;100.00;102537.22;4990050;28;20222;-68
2023/03/03 06:24:30;;;;;;;95.30;36.20;;;;;;;0.98;100.00;102526.66;4992084;28;20222;-68
2023/03/03 06:26:59;;;;;;;94.77;36.13;;;;;;;0.98;100.00;102533.31;4986505;28;20198;-69
2023/03/03 06:29:26;;;;;;;93.17;35.73;;;;;;;1.00;100.00;102531.81;4973977;28;20335;-69
2023/03/03 06:31:52;;;;;;;98.07;37.90;;;;;;;1.02;100.00;102535.34;4990807;28;20227;-70
2023/03/03 06:34:17;;;;;;;107.60;38.07;;;;;;;1.03;100.00;102537.09;4985237;28;20247;-69
2023/03/03 06:36:43;;;;;;;108.07;38.67;;;;;;;1.02;100.00;102538.75;4987165;28;20207;-69
2023/03/03 06:39:08;;;;;;;95.43;36.97;;;;;;;1.04;100.00;102536.34;4994837;28;20192;-69
2023/03/03 06:41:33;;;;;;;96.10;36.87;;;;;;;1.05;100.00;102539.00;4978001;28;20219;-67
2023/03/03 06:43:59;;;;;;;96.30;38.87;;;;;;;1.05;100.00;102541.50;4992821;28;20306;-69
2023/03/03 06:46:25;;;;;;;100.37;37.10;;;;;;;1.03;100.00;102540.53;4994091;28;20203;-67
2023/03/03 06:48:51;;;;;;;103.23;36.63;;;;;;;1.06;100.00;102538.22;4995456;28;20215;-70
2023/03/03 06:51:32;;;;;;;100.03;38.03;;;;;;;1.07;100.00;102546.69;4986228;28;20274;-70
2023/03/03 06:54:01;;;;;;;99.63;39.30;;;;;;;1.08;100.00;102540.88;4994432;28;20219;-68
2023/03/03 06:56:27;;;;;;;98.23;38.03;;;;;;;1.09;100.00;102541.03;4993882;28;20335;-69
2023/03/03 06:58:57;;;;;;;102.47;37.97;;;;;;;1.09;100.00;102551.09;4993197;28;20228;-69
2023/03/03 07:01:23;;;;;;;97.77;36.17;;;;;;;1.12;100.00;102553.00;4991321;28;20191;-69
2023/03/03 07:03:48;;;;;;;103.17;37.37;;;;;;;1.15;100.00;102549.09;4991614;28;20230;-68
2023/03/03 07:06:21;;;;;;;104.23;40.37;;;;;;;1.19;100.00;102550.25;4992673;28;20211;-69
2023/03/03 07:08:47;;;;;;;106.73;39.33;;;;;;;1.21;100.00;102552.16;4987355;28;20223;-69
2023/03/03 07:11:17;;;;;;;105.03;39.57;;;;;;;1.23;100.00;102555.66;4984997;28;20199;-68
2023/03/03 07:13:51;;;;;;;98.20;39.97;;;;;;;1.26;100.00;102560.09;4995157;28;20231;-69
2023/03/03 07:16:18;;;;;;;101.73;38.43;;;;;;;1.28;100.00;102564.50;4993737;28;20230;-69
2023/03/03 07:18:46;;;;;;;101.40;36.67;;;;;;;1.24;100.00;102567.50;4990796;28;20684;-69
2023/03/03 07:21:34;;;;;;;101.40;38.20;;;;;;;1.25;100.00;102573.47;4994615;28;20195;-70
2023/03/03 07:24:16;;;;;;;96.80;36.37;;;;;;;1.30;100.00;102577.25;4990669;28;20273;-68
2023/03/03 07:26:41;;;;;;;102.63;37.60;;;;;;;1.31;100.00;102566.38;4995125;28;20256;-68
2023/03/03 07:29:09;;;;;;;98.90;36.37;;;;;;;1.36;100.00;102570.19;4990618;28;20216;-68
2023/03/03 07:31:38;;;;;;;87.83;34.57;;;;;;;1.39;100.00;102589.00;4995878;28;20207;-68
2023/03/03 07:34:17;;;;;;;81.40;33.73;;;;;;;1.40;100.00;102594.91;4991692;28;20292;-68
2023/03/03 07:36:43;;;;;;;84.03;33.23;;;;;;;1.40;100.00;102592.38;5010183;28;20198;-69
2023/03/03 07:39:30;;;;;;;78.27;33.33;;;;;;;1.42;100.00;102593.41;4993996;28;20198;-69
2023/03/03 07:42:08;;;;;;;75.73;34.27;;;;;;;1.42;100.00;102595.94;4993796;28;20199;-67
2023/03/03 07:44:36;;;;;;;73.30;32.13;;;;;;;1.45;100.00;102599.59;4990542;28;20219;-68
2023/03/03 07:47:29;;;;;;;84.57;34.80;;;;;;;1.44;100.00;102594.41;4989990;28;20534;-69
2023/03/03 07:49:58;;;;;;;89.10;37.43;;;;;;;1.49;100.00;102593.16;4993150;28;20299;-69
2023/03/03 07:52:29;;;;;;;99.27;39.17;;;;;;;1.51;100.00;102586.63;4992652;28;20720;-69
2023/03/03 07:54:57;;;;;;;102.47;40.73;;;;;;;1.51;100.00;102595.03;4992217;28;20199;-69
2023/03/03 07:57:41;;;;;;;97.53;39.07;;;;;;;1.53;100.00;102592.66;4992919;28;20191;-69
2023/03/03 08:00:13;;;;;;;98.10;38.77;;;;;;;1.58;100.00;102588.88;4991040;28;20265;-69
2023/03/03 08:02:46;;;;;;;102.03;39.40;;;;;;;1.59;100.00;102585.59;4976710;28;20226;-69
2023/03/03 08:05:29;;;;;;;99.40;38.93;;;;;;;1.63;100.00;102585.09;4992719;28;20204;-68
2023/03/03 08:08:10;;;;;;;96.17;41.00;;;;;;;1.59;100.00;102583.97;4993140;28;20581;-68
2023/03/03 08:10:44;;;;;;;102.97;39.83;;;;;;;1.64;100.00;102589.38;4988423;28;20226;-69
2023/03/03 08:13:32;;;;;;;103.20;41.37;;;;;;;1.64;100.00;102582.69;4990598;28;20237;-70
2023/03/03 08:16:05;;;;;;;111.10;41.23;;;;;;;1.68;100.00;102589.75;4986950;28;20203;-69
2023/03/03 08:18:36;;;;;;;105.77;40.77;;;;;;;1.70;100.00;102584.84;4996344;28;20184;-70
2023/03/03 08:21:13;;;;;;;104.87;41.60;;;;;;;1.75;100.00;102583.59;4990931;28;20199;-69
2023/03/03 08:23:39;;;;;;;93.23;39.07;;;;;;;1.76;100.00;102580.28;4995673;28;20277;-69
2023/03/03 08:26:05;;;;;;;94.87;38.83;;;;;;;1.81;100.00;102577.41;4972243;28;20231;-67
2023/03/03 08:28:31;;;;;;;106.80;41.70;;;;;;;1.87;100.00;102577.88;4992835;28;20371;-68
2023/03/03 08:30:57;;;;;;;95.87;39.63;;;;;;;1.83;100.00;102587.63;4992354;28;20199;-69
2023/03/03 08:33:22;;;;;;;108.50;43.43;;;;;;;1.79;100.00;102591.50;4992644;28;20211;-69
2023/03/03 08:35:48;;;;;;;95.17;41.43;;;;;;;1.82;100.00;102585.84;4993988;28;20203;-69
2023/03/03 08:38:17;;;;;;;92.10;40.07;;;;;;;1.85;100.00;102579.41;4995571;28;20194;-68
2023/03/03 08:40:43;;;;;;;97.17;41.33;;;;;;;1.87;100.00;102582.03;4990520;28;20205;-70
2023/03/03 08:43:09;;;;;;;87.50;39.30;;;;;;;1.83;100.00;102585.97;4986322;28;20204;-69
2023/03/03 08:45:35;;;;;;;87.17;39.30;;;;;;;1.84;100.00;102581.81;4994945;28;20203;-69
2023/03/03 08:48:01;;;;;;;93.30;39.67;;;;;;;1.85;100.00;102581.03;4992293;28;20224;-69
2023/03/03 08:50:28;;;;;;;79.23;36.23;;;;;;;1.89;100.00;102580.53;4993778;28;20201;-69
2023/03/03 08:52:54;;;;;;;78.83;35.73;;;;;;;1.92;100.00;102576.63;4992571;28;20214;-69
2023/03/03 08:55:20;;;;;;;75.87;33.90;;;;;;;1.89;100.00;102573.81;4991186;28;20287;-69
2023/03/03 08:57:45;;;;;;;74.63;34.43;;;;;;;1.96;100.00;102585.31;4992679;28;20286;-70
2023/03/03 09:00:14;;;;;;;75.27;33.90;;;;;;;1.95;100.00;102594.56;4993409;28;20354;-71
2023/03/03 09:02:40;;;;;;;70.60;33.37;;;;;;;2.23;100.00;102590.97;4990689;28;20719;-69
2023/03/03 09:05:06;;;;;;;67.30;32.30;;;;;;;2.33;100.00;102585.88;4990929;28;20196;-68
2023/03/03 09:07:32;;;;;;;69.50;32.30;;;;;;;2.37;100.00;102592.94;4987657;28;20219;-68
2023/03/03 09:09:58;;;;;;;61.97;30.50;;;;;;;2.29;100.00;102591.44;4997179;28;20191;-69
2023/03/03 09:12:35;;;;;;;63.37;30.87;;;;;;;2.28;100.00;102588.78;4986764;28;20220;-68
2023/03/03 09:15:15;;;;;;;63.30;31.47;;;;;;;2.32;100.00;102591.69;4993080;28;20204;-68
2023/03/03 09:17:41;;;;;;;66.80;32.33;;;;;;;2.31;100.00;102589.03;4993912;28;20195;-69
2023/03/03 09:20:51;;;;;;;85.80;32.40;;;;;;;2.37;100.00;102590.41;4992858;28;20234;-68
2023/03/03 09:23:22;;;;;;;48.67;24.30;;;;;;;2.41;100.00;102602.53;5007574;28;20780;-69
2023/03/03 09:25:49;;;;;;;44.17;24.03;;;;;;;2.46;100.00;102597.84;4991719;28;20227;-68
2023/03/03 09:28:41;;;;;;;45.73;23.17;;;;;;;2.44;100.00;102596.84;4973386;28;20223;-69
2023/03/03 09:31:35;;;;;;;43.13;22.80;;;;;;;2.50;100.00;102597.31;4993595;28;20243;-68
2023/03/03 09:34:02;;;;;;;42.70;22.63;;;;;;;2.34;100.00;102585.09;4994014;28;20688;-69
2023/03/03 09:36:29;;;;;;;38.20;21.47;;;;;;;2.41;100.00;102596.59;4988302;28;20254;-68
2023/03/03 09:38:59;;;;;;;34.10;19.77;;;;;;;2.48;100.00;102597.19;4991235;28;20227;-69
2023/03/03 09:41:55;;;;;;;32.00;19.63;;;;;;;2.58;100.00;102597.16;4993281;28;20191;-69
2023/03/03 09:44:36;;;;;;;32.33;18.20;;;;;;;2.71;100.00;102594.84;4988823;28;20213;-69
2023/03/03 09:47:39;;;;;;;33.23;17.93;;;;;;;2.66;100.00;102592.72;4990144;28;20199;-69
2023/03/03 09:50:23;;;;;;;30.07;17.27;;;;;;;2.67;100.00;102595.34;4993494;28;20211;-68
2023/03/03 09:53:09;;;;;;;30.43;17.33;;;;;;;2.57;100.00;102607.19;4985711;28;20211;-69
2023/03/03 09:55:49;;;;;;;29.53;16.97;;;;;;;2.63;100.00;102602.59;4996513;28;20621;-68
2023/03/03 09:58:22;;;;;;;29.87;17.03;;;;;;;2.79;100.00;102608.97;4985846;28;20888;-67
2023/03/03 10:01:11;;;;;;;25.90;16.40;;;;;;;2.84;100.00;102611.84;4986670;28;20215;-68
2023/03/03 10:03:56;;;;;;;28.00;16.13;;;;;;;2.95;100.00;102600.94;4991751;28;20723;-67
2023/03/03 10:06:48;;;;;;;25.03;14.13;;;;;;;2.88;100.00;102603.72;4989634;28;20587;-68
2023/03/03 10:09:32;;;;;;;26.37;14.43;;;;;;;2.92;100.00;102605.75;4991465;28;20223;-68
2023/03/03 10:12:13;;;;;;;23.17;14.00;;;;;;;3.12;100.00;102603.13;4990043;28;20250;-69
2023/03/03 10:14:38;;;;;;;24.97;14.40;;;;;;;3.24;100.00;102607.47;4989289;28;20223;-68
2023/03/03 10:17:21;;;;;;;22.20;14.23;;;;;;;3.31;100.00;102611.38;4987600;28;20231;-69
2023/03/03 10:20:08;;;;;;;24.80;15.20;;;;;;;3.30;100.00;102615.53;4988884;28;20206;-65
2023/03/03 10:22:40;;;;;;;23.80;14.30;;;;;;;3.29;100.00;102608.72;5000889;28;20212;-69
2023/03/03 10:25:15;;;;;;;23.03;14.07;;;;;;;3.23;100.00;102604.81;4984978;28;20210;-69
2023/03/03 10:27:56;;;;;;;27.00;14.60;;;;;;;3.38;100.00;102599.28;4984557;28;20645;-68
2023/03/03 10:30:34;;;;;;;23.17;14.03;;;;;;;3.37;100.00;102592.47;4994791;28;20207;-68
2023/03/03 10:33:22;;;;;;;23.73;14.13;;;;;;;3.38;100.00;102604.34;4993312;28;20225;-68
2023/03/03 10:36:02;;;;;;;23.70;14.27;;;;;;;3.42;100.00;102600.38;4997658;28;20195;-66
2023/03/03 10:39:03;;;;;;;26.13;15.37;;;;;;;3.50;100.00;102590.06;4992760;28;20657;-68
2023/03/03 10:41:31;;;;;;;25.50;15.07;;;;;;;3.59;100.00;102590.75;5000998;28;20214;-67
2023/03/03 10:43:56;;;;;;;25.00;13.23;;;;;;;3.62;100.00;102587.56;4990839;28;20298;-67
2023/03/03 10:46:45;;;;;;;24.67;13.70;;;;;;;3.72;100.00;102580.78;4997050;28;20831;-68
2023/03/03 10:49:30;;;;;;;21.03;12.53;;;;;;;3.61;100.00;102586.72;4975454;28;20223;-68
2023/03/03 10:52:18;;;;;;;23.47;13.27;;;;;;;3.73;100.00;102586.75;4993210;28;20199;-69
2023/03/03 10:55:05;;;;;;;26.03;14.10;;;;;;;3.78;100.00;102582.88;4996217;28;20253;-69
2023/03/03 10:57:42;;;;;;;24.80;14.23;;;;;;;3.81;100.00;102573.88;4994118;28;20199;-69
2023/03/03 11:00:26;;;;;;;23.13;14.17;;;;;;;4.06;100.00;102579.06;4994732;28;20699;-68
2023/03/03 11:03:16;;;;;;;22.17;13.80;;;;;;;4.13;100.00;102573.66;4993861;28;20227;-68
2023/03/03 11:05:53;;;;;;;22.10;13.63;;;;;;;4.19;100.00;102567.38;4996567;28;20202;-70
2023/03/03 11:08:56;;;;;;;22.67;14.03;;;;;;;4.25;100.00;102575.47;4991862;28;20289;-69
2023/03/03 11:11:27;;;;;;;21.53;14.30;;;;;;;4.25;100.00;102565.31;4986987;28;20230;-71
2023/03/03 11:14:12;;;;;;;22.70;14.37;;;;;;;4.22;100.00;102567.63;4981858;28;20350;-68
2023/03/03 11:16:47;;;;;;;21.40;13.37;;;;;;;4.28;100.00;102560.44;4995605;28;20207;-69
2023/03/03 11:19:24;;;;;;;21.70;13.10;;;;;;;4.29;100.00;102563.88;4989952;28;20231;-69
2023/03/03 11:21:55;;;;;;;21.53;13.13;;;;;;;4.30;100.00;102560.56;4974561;28;20214;-66